weather.gov     
National Weather Service

Terminal Aerodrome Forecast
NWS Homepage
This page is being discontinued on March 12, 2014.
The same data is available at this site. Please update your bookmarks.
Thank you, and we apologize for the inconvenience.
Please send an email to SR-SRH.Webmaster@noaa.gov with any concerns.


Current Version
Previous Version:    01  02  03  04  05  06  07  08  09  10  11  12  13  14  15  16  17  18  19  20  21  
[Printable]
521
FTUS46 KLOX 312300 RRA
TAFWJF
TAF
KWJF 312340Z 0100/0124 22025G32KT 4SM BLDU BKN250
     FM010100 23016G24KT P6SM BKN250
     FM010400 25014KT P6SM SCT040 BKN080
     FM010900 25018G26KT P6SM -SHRA SCT025 OVC040
     FM011300 26016G23KT P6SM VCSH SCT040 BKN080
     FM011500 25016G23KT P6SM OVC050
     FM011800 24018G26KT P6SM SCT050 BKN250
     FM012000 24022G30KT P6SM SCT250=


U.S. Dept. of Commerce
NOAA National Weather Service
1325 East West Highway
Silver Spring, MD 20910
E-mail: w-nws.webmaster@noaa.gov
Page last modified: May 16, 2007
NATIONAL WEATHER SERVICE: for Safety, for Work, for Fun - FOR LIFE